Time;durP1;ratioP1;P1;durP2;ratioP2;P2;SDS_P1;SDS_P2;PMS_P1;PMS_P2;Temp;Humidity;BMP_temperature;BMP_pressure;BME280_temperature;BME280_humidity;BME280_pressure;Samples;Min_cycle;Max_cycle;Signal;HPM_P1;HPM_P2
2023/03/16 00:00:12;;;;;;;11.67;7.73;;;;;;;;;;5075009;28;20228;-82
2023/03/16 00:02:40;;;;;;;12.67;8.30;;;;;;;;;;5074272;28;20293;-82
2023/03/16 00:05:08;;;;;;;10.23;7.97;;;;;;;;;;5075021;28;20635;-82
2023/03/16 00:07:36;;;;;;;12.53;9.83;;;;;;;;;;5074399;28;20275;-82
2023/03/16 00:10:03;;;;;;;11.77;7.83;;;;;;;;;;5074882;28;20225;-82
2023/03/16 00:12:33;;;;;;;14.23;7.93;;;;;;;;;;5093827;28;20246;-82
2023/03/16 00:15:01;;;;;;;10.73;8.20;;;;;;;;;;5092959;28;20212;-82
2023/03/16 00:17:28;;;;;;;11.60;8.50;;;;;;;;;;5074133;28;20739;-82
2023/03/16 00:19:56;;;;;;;12.70;8.37;;;;;;;;;;5095037;28;20227;-82
2023/03/16 00:22:24;;;;;;;12.57;8.00;;;;;;;;;;5094199;28;20239;-82
2023/03/16 00:24:52;;;;;;;15.20;7.83;;;;;;;;;;5094751;28;20206;-82
2023/03/16 00:27:21;;;;;;;9.40;7.27;;;;;;;;;;5093810;28;20250;-82
2023/03/16 00:29:49;;;;;;;9.93;7.47;;;;;;;;;;5080807;28;20232;-83
2023/03/16 00:32:17;;;;;;;10.97;7.57;;;;;;;;;;5091139;28;20650;-82
2023/03/16 00:34:44;;;;;;;9.00;7.60;;;;;;;;;;5094754;28;20207;-82
2023/03/16 00:37:12;;;;;;;11.33;7.97;;;;;;;;;;5094104;28;20258;-82
2023/03/16 00:39:40;;;;;;;12.43;7.60;;;;;;;;;;5094374;28;20236;-82
2023/03/16 00:42:09;;;;;;;9.23;7.43;;;;;;;;;;5086425;28;20233;-82
2023/03/16 00:44:36;;;;;;;8.13;6.93;;;;;;;;;;5074427;28;20207;-82
2023/03/16 00:47:04;;;;;;;8.90;7.47;;;;;;;;;;5077091;28;20226;-82
2023/03/16 00:49:33;;;;;;;10.47;7.37;;;;;;;;;;5094057;28;20227;-82
2023/03/16 00:52:00;;;;;;;10.57;7.50;;;;;;;;;;5093673;28;20211;-82
2023/03/16 00:54:27;;;;;;;8.13;7.13;;;;;;;;;;5094139;28;20212;-82
2023/03/16 00:56:54;;;;;;;10.37;7.30;;;;;;;;;;5086630;28;20208;-82
2023/03/16 00:59:25;;;;;;;11.93;7.67;;;;;;;;;;5073837;28;20237;-82
2023/03/16 01:01:52;;;;;;;11.97;8.37;;;;;;;;;;5083195;28;20660;-82
2023/03/16 01:04:19;;;;;;;10.87;6.73;;;;;;;;;;5089964;28;20711;-82
2023/03/16 01:06:46;;;;;;;8.43;7.23;;;;;;;;;;5093554;28;20234;-82
2023/03/16 01:09:13;;;;;;;11.67;7.87;;;;;;;;;;5092923;28;20219;-83
2023/03/16 01:11:41;;;;;;;9.53;7.50;;;;;;;;;;5093970;28;20226;-82
2023/03/16 01:14:08;;;;;;;10.93;7.33;;;;;;;;;;5093271;28;20261;-82
2023/03/16 01:16:37;;;;;;;9.87;7.00;;;;;;;;;;5086087;28;20203;-82
2023/03/16 01:19:04;;;;;;;12.13;7.47;;;;;;;;;;5072445;28;20239;-83
2023/03/16 01:21:32;;;;;;;9.43;7.10;;;;;;;;;;5073408;28;20203;-82
2023/03/16 01:23:59;;;;;;;10.57;7.80;;;;;;;;;;5072870;28;20753;-82
2023/03/16 01:26:26;;;;;;;12.23;7.10;;;;;;;;;;5073637;28;20234;-82
2023/03/16 01:28:54;;;;;;;11.03;7.00;;;;;;;;;;5079611;28;20283;-82
2023/03/16 01:31:21;;;;;;;11.97;6.90;;;;;;;;;;5082358;28;20235;-83
2023/03/16 01:33:50;;;;;;;10.17;7.07;;;;;;;;;;5087962;28;20238;-82
2023/03/16 01:36:18;;;;;;;7.77;6.10;;;;;;;;;;5093548;28;20224;-83
2023/03/16 01:38:46;;;;;;;11.40;6.83;;;;;;;;;;5092802;27;20245;-82
2023/03/16 01:41:14;;;;;;;10.33;7.40;;;;;;;;;;5083322;28;20192;-83
2023/03/16 01:43:42;;;;;;;8.50;6.50;;;;;;;;;;5072556;28;20259;-83
2023/03/16 01:46:17;;;;;;;12.17;7.23;;;;;;;;;;5073211;28;20216;-83
2023/03/16 01:48:47;;;;;;;7.90;6.37;;;;;;;;;;5074830;28;20245;-83
2023/03/16 01:51:20;;;;;;;8.53;6.60;;;;;;;;;;5075033;28;20227;-82
2023/03/16 01:53:48;;;;;;;10.47;6.50;;;;;;;;;;5074620;28;20258;-82
2023/03/16 01:56:18;;;;;;;8.50;6.30;;;;;;;;;;5074933;28;20229;-83
2023/03/16 01:58:46;;;;;;;9.23;7.17;;;;;;;;;;5080123;28;20243;-82
2023/03/16 02:01:13;;;;;;;9.83;6.80;;;;;;;;;;5093862;28;20204;-82
2023/03/16 02:03:42;;;;;;;9.60;6.70;;;;;;;;;;5093735;28;20252;-82
2023/03/16 02:06:10;;;;;;;9.27;6.50;;;;;;;;;;5083360;28;20206;-82
2023/03/16 02:08:39;;;;;;;11.40;7.37;;;;;;;;;;5093184;28;20251;-82
2023/03/16 02:11:07;;;;;;;8.67;6.50;;;;;;;;;;5092511;28;20198;-82
2023/03/16 02:13:35;;;;;;;7.47;6.13;;;;;;;;;;5092119;28;20235;-82
2023/03/16 02:16:03;;;;;;;8.37;6.63;;;;;;;;;;5092666;28;20205;-82
2023/03/16 02:18:30;;;;;;;9.27;7.13;;;;;;;;;;5088229;28;20223;-82
2023/03/16 02:21:03;;;;;;;10.83;7.17;;;;;;;;;;5072516;28;20215;-82
2023/03/16 02:23:31;;;;;;;9.97;7.17;;;;;;;;;;5071682;28;20238;-82
2023/03/16 02:26:02;;;;;;;13.13;7.33;;;;;;;;;;5090405;28;20225;-82
2023/03/16 02:28:31;;;;;;;15.97;8.10;;;;;;;;;;5071130;28;20253;-82
2023/03/16 02:31:00;;;;;;;11.10;7.20;;;;;;;;;;5072848;28;20206;-82
2023/03/16 02:33:28;;;;;;;13.03;7.43;;;;;;;;;;5071398;28;20602;-82
2023/03/16 02:35:55;;;;;;;11.83;7.20;;;;;;;;;;5072499;28;20206;-82
2023/03/16 02:38:23;;;;;;;9.27;7.77;;;;;;;;;;5071623;28;20235;-82
2023/03/16 02:40:56;;;;;;;9.40;6.23;;;;;;;;;;5071805;28;20219;-82
2023/03/16 02:43:25;;;;;;;12.20;7.37;;;;;;;;;;5071460;28;20237;-82
2023/03/16 02:45:54;;;;;;;16.30;7.57;;;;;;;;;;5072131;28;20205;-82
2023/03/16 02:48:24;;;;;;;9.50;7.87;;;;;;;;;;5071397;28;20246;-82
2023/03/16 02:50:53;;;;;;;9.97;7.33;;;;;;;;;;5076648;28;20198;-82
2023/03/16 02:53:20;;;;;;;11.20;6.83;;;;;;;;;;5091496;28;20241;-82
2023/03/16 02:55:48;;;;;;;10.53;7.37;;;;;;;;;;5092292;28;20230;-82
2023/03/16 02:58:15;;;;;;;9.23;6.50;;;;;;;;;;5075146;28;20237;-82
2023/03/16 03:00:44;;;;;;;11.53;7.40;;;;;;;;;;5071213;28;20234;-82
2023/03/16 03:03:11;;;;;;;9.90;7.13;;;;;;;;;;5071301;28;20234;-82
2023/03/16 03:05:39;;;;;;;10.20;6.47;;;;;;;;;;5075563;28;20201;-82
2023/03/16 03:08:07;;;;;;;8.27;6.80;;;;;;;;;;5079347;28;20675;-82
2023/03/16 03:10:34;;;;;;;9.63;6.77;;;;;;;;;;5071760;28;20234;-82
2023/03/16 03:13:01;;;;;;;8.70;6.70;;;;;;;;;;5071195;28;20242;-82
2023/03/16 03:15:28;;;;;;;10.53;6.87;;;;;;;;;;5071618;28;20205;-82
2023/03/16 03:17:55;;;;;;;10.83;7.63;;;;;;;;;;5071148;28;20244;-82
2023/03/16 03:20:22;;;;;;;9.73;7.20;;;;;;;;;;5087777;28;20231;-82
2023/03/16 03:22:51;;;;;;;11.83;7.80;;;;;;;;;;5091182;28;20235;-82
2023/03/16 03:25:19;;;;;;;9.07;7.23;;;;;;;;;;5078109;28;20228;-82
2023/03/16 03:27:50;;;;;;;10.53;7.07;;;;;;;;;;5090774;28;20605;-82
2023/03/16 03:30:18;;;;;;;10.53;7.37;;;;;;;;;;5091834;28;20224;-82
2023/03/16 03:32:45;;;;;;;9.07;7.33;;;;;;;;;;5093556;28;20232;-82
2023/03/16 03:35:14;;;;;;;9.43;7.07;;;;;;;;;;5095402;28;20215;-82
2023/03/16 03:37:43;;;;;;;8.50;6.70;;;;;;;;;;5095077;28;20237;-82
2023/03/16 03:40:16;;;;;;;9.40;6.93;;;;;;;;;;5095451;28;20240;-82
2023/03/16 03:42:43;;;;;;;12.87;7.23;;;;;;;;;;5093178;28;20229;-82
2023/03/16 03:45:11;;;;;;;9.17;7.10;;;;;;;;;;5075419;28;20213;-82
2023/03/16 03:47:38;;;;;;;9.67;7.50;;;;;;;;;;5074739;28;20229;-82
2023/03/16 03:50:06;;;;;;;15.67;7.40;;;;;;;;;;5075284;28;20237;-82
2023/03/16 03:52:33;;;;;;;9.23;6.90;;;;;;;;;;5074555;28;20601;-82
2023/03/16 03:55:00;;;;;;;11.97;8.47;;;;;;;;;;5074904;28;20437;-82
2023/03/16 03:57:28;;;;;;;8.57;7.00;;;;;;;;;;5074487;28;20227;-82
2023/03/16 03:59:55;;;;;;;11.80;8.10;;;;;;;;;;5074900;28;20305;-82
2023/03/16 04:02:22;;;;;;;10.20;7.03;;;;;;;;;;5074219;28;20261;-83
2023/03/16 04:04:50;;;;;;;8.37;7.47;;;;;;;;;;5074857;28;20263;-83
2023/03/16 04:07:17;;;;;;;11.83;7.77;;;;;;;;;;5074171;28;20240;-83
2023/03/16 04:09:44;;;;;;;10.57;7.57;;;;;;;;;;5079683;28;20213;-83
2023/03/16 04:12:11;;;;;;;11.03;7.70;;;;;;;;;;5093939;28;20709;-83
2023/03/16 04:14:40;;;;;;;11.50;7.20;;;;;;;;;;5093462;28;20205;-82
2023/03/16 04:17:07;;;;;;;7.90;6.67;;;;;;;;;;5094107;28;20710;-82
2023/03/16 04:19:34;;;;;;;8.93;6.80;;;;;;;;;;5094349;28;20220;-83
2023/03/16 04:22:01;;;;;;;11.17;8.07;;;;;;;;;;5089733;28;20205;-83
2023/03/16 04:24:28;;;;;;;11.00;7.47;;;;;;;;;;5094108;28;20231;-83
2023/03/16 04:26:55;;;;;;;8.70;7.23;;;;;;;;;;5083112;28;20214;-83
2023/03/16 04:29:24;;;;;;;13.33;7.23;;;;;;;;;;5077114;28;20221;-83
2023/03/16 04:31:54;;;;;;;11.87;7.67;;;;;;;;;;5093641;28;20266;-83
2023/03/16 04:34:23;;;;;;;9.90;7.73;;;;;;;;;;5094285;28;20607;-83
2023/03/16 04:36:50;;;;;;;9.10;7.40;;;;;;;;;;5077358;28;20206;-83
2023/03/16 04:39:18;;;;;;;10.60;6.87;;;;;;;;;;5074056;28;20287;-83
2023/03/16 04:41:45;;;;;;;10.97;8.10;;;;;;;;;;5073454;28;20211;-83
2023/03/16 04:44:12;;;;;;;12.37;8.23;;;;;;;;;;5072772;28;20202;-83
2023/03/16 04:46:39;;;;;;;9.97;7.03;;;;;;;;;;5074155;28;20205;-82
2023/03/16 04:49:08;;;;;;;9.20;7.47;;;;;;;;;;5085156;28;20233;-83
2023/03/16 04:51:36;;;;;;;11.50;8.10;;;;;;;;;;5094881;28;20205;-82
2023/03/16 04:54:03;;;;;;;8.30;7.00;;;;;;;;;;5093498;28;20232;-83
2023/03/16 04:56:30;;;;;;;10.10;8.00;;;;;;;;;;5094412;28;20209;-83
2023/03/16 04:58:57;;;;;;;22.93;11.67;;;;;;;;;;5091920;28;20228;-83
2023/03/16 05:01:24;;;;;;;38.37;19.17;;;;;;;;;;5086125;28;20670;-83
2023/03/16 05:03:52;;;;;;;22.50;14.73;;;;;;;;;;5077501;28;20701;-82
2023/03/16 05:06:21;;;;;;;62.13;28.77;;;;;;;;;;5074926;28;20256;-83
2023/03/16 05:08:48;;;;;;;40.00;17.07;;;;;;;;;;5080234;28;20222;-83
2023/03/16 05:11:15;;;;;;;13.03;9.17;;;;;;;;;;5093474;28;20735;-83
2023/03/16 05:13:42;;;;;;;17.07;10.67;;;;;;;;;;5076503;28;20704;-83
2023/03/16 05:16:09;;;;;;;14.80;8.63;;;;;;;;;;5073674;28;20210;-83
2023/03/16 05:18:36;;;;;;;12.73;8.63;;;;;;;;;;5072868;28;20256;-82
2023/03/16 05:21:03;;;;;;;12.80;8.07;;;;;;;;;;5073626;28;20209;-82
2023/03/16 05:23:32;;;;;;;13.33;7.87;;;;;;;;;;5072861;28;20731;-82
2023/03/16 05:25:59;;;;;;;11.27;8.53;;;;;;;;;;5073440;28;20634;-82
2023/03/16 05:28:27;;;;;;;12.03;8.67;;;;;;;;;;5072799;28;20320;-82
2023/03/16 05:30:55;;;;;;;11.87;7.93;;;;;;;;;;5085195;28;20216;-82
2023/03/16 05:33:22;;;;;;;12.43;8.30;;;;;;;;;;5075964;28;20319;-83
2023/03/16 05:35:49;;;;;;;11.33;8.20;;;;;;;;;;5073026;28;20665;-84
2023/03/16 05:38:17;;;;;;;15.93;7.87;;;;;;;;;;5072644;28;20225;-83
2023/03/16 05:40:51;;;;;;;12.53;7.73;;;;;;;;;;5076366;28;20224;-84
2023/03/16 05:43:18;;;;;;;10.07;7.60;;;;;;;;;;5092524;28;20232;-82
2023/03/16 05:45:45;;;;;;;10.37;7.47;;;;;;;;;;5093187;28;20201;-82
2023/03/16 05:48:13;;;;;;;9.93;7.60;;;;;;;;;;5092513;28;20256;-82
2023/03/16 05:50:41;;;;;;;10.50;7.63;;;;;;;;;;5093235;28;20270;-84
2023/03/16 05:53:08;;;;;;;12.17;8.40;;;;;;;;;;5092415;28;20236;-84
2023/03/16 05:55:35;;;;;;;10.50;7.67;;;;;;;;;;5092631;28;20209;-84
2023/03/16 05:58:04;;;;;;;11.47;7.90;;;;;;;;;;5092259;28;20233;-84
2023/03/16 06:00:31;;;;;;;13.43;8.30;;;;;;;;;;5092874;28;20228;-84
2023/03/16 06:02:58;;;;;;;14.00;9.10;;;;;;;;;;5092337;28;20237;-84
2023/03/16 06:05:27;;;;;;;14.53;8.50;;;;;;;;;;5092948;28;20233;-85
2023/03/16 06:07:54;;;;;;;16.37;9.00;;;;;;;;;;5092194;28;20254;-84
2023/03/16 06:10:21;;;;;;;11.20;8.60;;;;;;;;;;5092652;28;20581;-85
2023/03/16 06:12:48;;;;;;;13.77;9.13;;;;;;;;;;5091492;28;20318;-84
2023/03/16 06:15:17;;;;;;;10.97;7.97;;;;;;;;;;5092136;28;20208;-84
2023/03/16 06:17:44;;;;;;;11.27;7.87;;;;;;;;;;5091985;28;20695;-82
2023/03/16 06:20:13;;;;;;;12.80;8.50;;;;;;;;;;5092546;28;20252;-82
2023/03/16 06:22:48;;;;;;;12.10;9.10;;;;;;;;;;5091741;28;20285;-83
2023/03/16 06:25:15;;;;;;;12.87;8.10;;;;;;;;;;5092577;28;20276;-83
2023/03/16 06:27:43;;;;;;;11.80;8.50;;;;;;;;;;5091917;28;20243;-84
2023/03/16 06:30:13;;;;;;;22.57;9.97;;;;;;;;;;5080809;28;20253;-84
2023/03/16 06:32:41;;;;;;;13.00;9.50;;;;;;;;;;5071115;28;20256;-83
2023/03/16 06:35:10;;;;;;;18.67;10.43;;;;;;;;;;5071987;28;20677;-84
2023/03/16 06:37:37;;;;;;;15.37;10.53;;;;;;;;;;5071570;28;20593;-84
2023/03/16 06:40:04;;;;;;;20.37;12.13;;;;;;;;;;5071461;28;20612;-83
2023/03/16 06:42:32;;;;;;;14.83;8.87;;;;;;;;;;5073101;28;20228;-83
2023/03/16 06:44:59;;;;;;;12.73;9.17;;;;;;;;;;5092076;28;20259;-83
2023/03/16 06:47:26;;;;;;;16.67;9.80;;;;;;;;;;5091733;28;20236;-83
2023/03/16 06:49:55;;;;;;;15.27;9.50;;;;;;;;;;5071601;28;20240;-83
2023/03/16 06:52:22;;;;;;;13.97;9.57;;;;;;;;;;5071260;28;20248;-82
2023/03/16 06:54:49;;;;;;;15.10;8.93;;;;;;;;;;5072629;28;20211;-82
2023/03/16 06:57:17;;;;;;;15.70;9.73;;;;;;;;;;5086750;28;20239;-82
2023/03/16 06:59:44;;;;;;;16.57;10.33;;;;;;;;;;5091498;28;20270;-83
2023/03/16 07:02:13;;;;;;;14.07;10.07;;;;;;;;;;5089539;28;20234;-82
2023/03/16 07:04:40;;;;;;;19.77;10.33;;;;;;;;;;5089796;28;20242;-82
2023/03/16 07:07:09;;;;;;;16.43;10.57;;;;;;;;;;5092472;28;20237;-82
2023/03/16 07:09:36;;;;;;;16.60;10.80;;;;;;;;;;5079951;28;20230;-82
2023/03/16 07:12:03;;;;;;;24.40;12.27;;;;;;;;;;5074087;28;20265;-82
2023/03/16 07:14:30;;;;;;;20.17;12.40;;;;;;;;;;5074845;28;20261;-83
2023/03/16 07:16:57;;;;;;;21.77;12.43;;;;;;;;;;5088079;28;20609;-83
2023/03/16 07:19:24;;;;;;;22.90;13.50;;;;;;;;;;5094243;28;20288;-83
2023/03/16 07:21:51;;;;;;;18.77;12.57;;;;;;;;;;5093713;28;20670;-83
2023/03/16 07:24:20;;;;;;;21.80;12.33;;;;;;;;;;5093673;28;20690;-83
2023/03/16 07:26:47;;;;;;;22.97;12.70;;;;;;;;;;5093821;28;20208;-83
2023/03/16 07:29:15;;;;;;;26.43;14.73;;;;;;;;;;5094957;28;20244;-83
2023/03/16 07:31:43;;;;;;;28.20;14.37;;;;;;;;;;5093992;28;20212;-83
2023/03/16 07:34:10;;;;;;;30.60;15.70;;;;;;;;;;5094612;28;20215;-83
2023/03/16 07:36:37;;;;;;;27.93;15.30;;;;;;;;;;5094074;28;20212;-83
2023/03/16 07:39:05;;;;;;;27.97;15.23;;;;;;;;;;5093350;28;20289;-83
2023/03/16 07:41:33;;;;;;;31.20;16.03;;;;;;;;;;5092604;28;20260;-83
2023/03/16 07:44:00;;;;;;;32.37;16.00;;;;;;;;;;5081497;28;20715;-83
2023/03/16 07:46:27;;;;;;;27.60;15.27;;;;;;;;;;5092046;28;20208;-84
2023/03/16 07:48:54;;;;;;;29.40;14.80;;;;;;;;;;5089526;28;20227;-83
2023/03/16 07:51:21;;;;;;;32.80;17.03;;;;;;;;;;5092977;28;20200;-83
2023/03/16 07:53:48;;;;;;;32.83;15.40;;;;;;;;;;5083852;28;20241;-83
2023/03/16 07:56:15;;;;;;;27.63;16.43;;;;;;;;;;5076074;28;20212;-84
2023/03/16 07:58:44;;;;;;;25.63;14.10;;;;;;;;;;5091877;28;20240;-83
2023/03/16 08:01:11;;;;;;;31.30;16.43;;;;;;;;;;5092196;28;20203;-83
2023/03/16 08:03:39;;;;;;;26.50;14.00;;;;;;;;;;5091893;28;20716;-82
2023/03/16 08:06:06;;;;;;;22.37;13.77;;;;;;;;;;5090864;28;20209;-82
2023/03/16 08:08:33;;;;;;;25.53;13.83;;;;;;;;;;5091668;28;20703;-82
2023/03/16 08:11:00;;;;;;;22.50;12.90;;;;;;;;;;5091890;28;20212;-83
2023/03/16 08:13:27;;;;;;;21.07;13.80;;;;;;;;;;5092068;28;20300;-83
2023/03/16 08:16:00;;;;;;;22.87;13.27;;;;;;;;;;5092427;28;20213;-83
2023/03/16 08:18:28;;;;;;;22.10;14.47;;;;;;;;;;5071351;28;20240;-83
2023/03/16 08:20:55;;;;;;;21.27;13.67;;;;;;;;;;5071699;28;20511;-83
2023/03/16 08:23:23;;;;;;;17.13;12.37;;;;;;;;;;5071469;28;20608;-84
2023/03/16 08:25:52;;;;;;;15.87;10.63;;;;;;;;;;5076353;28;20244;-83
2023/03/16 08:28:20;;;;;;;18.13;11.90;;;;;;;;;;5091275;28;20240;-84
2023/03/16 08:30:47;;;;;;;14.73;10.73;;;;;;;;;;5091851;28;20229;-84
2023/03/16 08:33:18;;;;;;;11.87;9.17;;;;;;;;;;5089281;28;20305;-83
2023/03/16 08:35:45;;;;;;;15.37;9.97;;;;;;;;;;5086433;28;20192;-84
2023/03/16 08:38:13;;;;;;;12.50;8.97;;;;;;;;;;5091331;28;20607;-84
2023/03/16 08:40:46;;;;;;;11.50;9.30;;;;;;;;;;5027840;28;1325154;-84
2023/03/16 08:43:13;;;;;;;10.73;8.97;;;;;;;;;;5092555;28;20233;-83
2023/03/16 08:45:41;;;;;;;13.53;7.67;;;;;;;;;;5092732;28;20210;-84
2023/03/16 08:48:11;;;;;;;12.00;9.37;;;;;;;;;;5092114;28;20234;-84
2023/03/16 08:50:40;;;;;;;13.07;8.57;;;;;;;;;;5080241;28;20252;-84
2023/03/16 08:53:08;;;;;;;9.50;8.33;;;;;;;;;;5091134;28;20230;-84
2023/03/16 08:55:35;;;;;;;9.60;7.33;;;;;;;;;;5072009;28;20237;-84
2023/03/16 08:58:03;;;;;;;11.47;8.53;;;;;;;;;;5093103;28;20692;-83
2023/03/16 09:00:30;;;;;;;10.17;7.77;;;;;;;;;;5092958;28;20233;-84
2023/03/16 09:02:58;;;;;;;7.50;6.70;;;;;;;;;;5092356;28;20257;-84
2023/03/16 09:05:25;;;;;;;9.27;7.30;;;;;;;;;;5092938;28;20195;-84
2023/03/16 09:07:54;;;;;;;10.07;7.87;;;;;;;;;;5092372;28;20268;-83
2023/03/16 09:10:21;;;;;;;9.60;7.70;;;;;;;;;;5092389;28;20239;-84
2023/03/16 09:12:50;;;;;;;9.03;6.40;;;;;;;;;;5090170;28;20232;-84
2023/03/16 09:15:18;;;;;;;7.60;6.60;;;;;;;;;;5104533;28;20200;-84
2023/03/16 09:17:45;;;;;;;9.13;7.33;;;;;;;;;;5106610;28;20960;-84
2023/03/16 09:20:14;;;;;;;7.30;6.10;;;;;;;;;;5087969;28;20233;-84
2023/03/16 09:22:42;;;;;;;6.83;6.13;;;;;;;;;;5081967;28;20236;-84
2023/03/16 09:25:11;;;;;;;6.17;5.57;;;;;;;;;;5099898;28;20215;-84
2023/03/16 09:27:38;;;;;;;8.20;6.20;;;;;;;;;;5112160;28;20599;-84
2023/03/16 09:30:06;;;;;;;6.57;5.80;;;;;;;;;;5116071;22;20224;-81
2023/03/16 09:32:36;;;;;;;7.90;6.60;;;;;;;;;;5099230;28;20231;-83
2023/03/16 09:35:04;;;;;;;6.90;5.60;;;;;;;;;;5092716;28;20212;-82
2023/03/16 09:37:32;;;;;;;6.13;5.47;;;;;;;;;;5092545;28;20228;-83
2023/03/16 09:39:59;;;;;;;5.90;5.20;;;;;;;;;;5092680;28;20235;-83
2023/03/16 09:42:33;;;;;;;5.77;5.27;;;;;;;;;;5093166;28;20238;-83
2023/03/16 09:45:07;;;;;;;6.13;5.33;;;;;;;;;;5095019;28;20201;-83
2023/03/16 09:47:35;;;;;;;5.33;4.27;;;;;;;;;;5100054;28;20699;-83
2023/03/16 09:50:04;;;;;;;5.00;4.60;;;;;;;;;;5103506;28;20292;-83
2023/03/16 09:52:35;;;;;;;5.17;4.60;;;;;;;;;;5123407;28;20232;-83
2023/03/16 09:55:05;;;;;;;5.47;4.97;;;;;;;;;;5117251;28;20197;-83
2023/03/16 09:57:34;;;;;;;6.13;5.17;;;;;;;;;;5105446;28;20236;-83
2023/03/16 10:00:11;;;;;;;6.23;5.13;;;;;;;;;;5099995;28;20240;-83
2023/03/16 10:02:45;;;;;;;5.17;4.53;;;;;;;;;;5082523;28;20243;-83
2023/03/16 10:05:13;;;;;;;4.07;3.23;;;;;;;;;;5094988;28;20192;-83
2023/03/16 10:07:45;;;;;;;5.37;4.83;;;;;;;;;;5103399;28;20518;-83
2023/03/16 10:10:21;;;;;;;5.83;5.00;;;;;;;;;;5101644;28;20232;-83
2023/03/16 10:12:51;;;;;;;4.17;3.83;;;;;;;;;;5096832;28;20236;-83
2023/03/16 10:15:19;;;;;;;4.87;4.40;;;;;;;;;;5096728;28;20239;-84
2023/03/16 10:17:50;;;;;;;6.80;5.47;;;;;;;;;;5093907;28;20734;-84
2023/03/16 10:20:19;;;;;;;5.37;4.87;;;;;;;;;;5094314;28;20225;-85
2023/03/16 10:22:47;;;;;;;5.57;5.07;;;;;;;;;;5091928;28;20232;-84
2023/03/16 10:25:19;;;;;;;7.13;4.93;;;;;;;;;;5091299;28;20200;-84
2023/03/16 10:27:47;;;;;;;5.73;4.80;;;;;;;;;;5091456;28;20259;-84
2023/03/16 10:30:19;;;;;;;5.80;5.23;;;;;;;;;;5089932;28;20235;-83
2023/03/16 10:32:48;;;;;;;5.03;4.53;;;;;;;;;;5081618;28;20703;-83
2023/03/16 10:35:20;;;;;;;6.00;4.90;;;;;;;;;;5087413;28;20191;-84
2023/03/16 10:37:48;;;;;;;5.20;4.60;;;;;;;;;;5089460;28;20290;-83
2023/03/16 10:40:19;;;;;;;5.90;4.77;;;;;;;;;;5090969;28;20334;-84
2023/03/16 10:42:46;;;;;;;4.97;4.43;;;;;;;;;;5090553;28;20228;-84
2023/03/16 10:45:24;;;;;;;5.53;4.73;;;;;;;;;;5108507;28;20635;-85
2023/03/16 10:47:51;;;;;;;5.27;4.77;;;;;;;;;;5089465;28;20339;-85
2023/03/16 10:50:23;;;;;;;5.73;4.80;;;;;;;;;;5090169;28;20236;-84
2023/03/16 10:52:52;;;;;;;4.43;4.03;;;;;;;;;;5097860;28;20232;-85
2023/03/16 10:55:20;;;;;;;4.87;4.37;;;;;;;;;;5090974;28;20300;-83
2023/03/16 10:57:50;;;;;;;5.50;4.83;;;;;;;;;;5090545;28;20236;-84
2023/03/16 11:00:20;;;;;;;8.20;5.00;;;;;;;;;;5077064;28;20223;-84
2023/03/16 11:02:49;;;;;;;4.50;4.10;;;;;;;;;;5077810;28;20236;-84
2023/03/16 11:05:25;;;;;;;4.80;4.07;;;;;;;;;;5090383;28;20208;-84
2023/03/16 11:07:54;;;;;;;5.53;4.10;;;;;;;;;;5109020;28;20729;-84
2023/03/16 11:10:26;;;;;;;4.90;3.80;;;;;;;;;;5111176;28;20235;-84
2023/03/16 11:12:54;;;;;;;4.07;3.77;;;;;;;;;;5090550;28;20645;-84
2023/03/16 11:15:21;;;;;;;4.63;4.23;;;;;;;;;;5088183;28;20206;-85
2023/03/16 11:17:50;;;;;;;5.03;4.57;;;;;;;;;;5093344;28;20228;-85
2023/03/16 11:20:19;;;;;;;4.37;3.97;;;;;;;;;;5092043;28;20217;-85
2023/03/16 11:22:47;;;;;;;4.03;3.73;;;;;;;;;;5094596;28;20602;-85
2023/03/16 11:25:27;;;;;;;5.17;4.10;;;;;;;;;;5089390;28;20209;-85
2023/03/16 11:28:10;;;;;;;4.30;3.90;;;;;;;;;;5089331;28;20239;-85
2023/03/16 11:30:40;;;;;;;4.97;4.27;;;;;;;;;;5093392;28;20259;-85
2023/03/16 11:33:10;;;;;;;4.90;4.50;;;;;;;;;;5084272;28;20247;-85
2023/03/16 11:35:39;;;;;;;4.87;4.30;;;;;;;;;;5090479;28;20287;-85
2023/03/16 11:38:10;;;;;;;6.43;4.40;;;;;;;;;;5088944;28;20232;-85
2023/03/16 11:40:41;;;;;;;4.40;4.00;;;;;;;;;;5090779;28;20227;-85
2023/03/16 11:43:18;;;;;;;4.60;4.20;;;;;;;;;;5095338;28;20252;-85
2023/03/16 11:45:49;;;;;;;5.07;4.40;;;;;;;;;;5092430;28;20642;-84
2023/03/16 11:48:23;;;;;;;8.03;4.30;;;;;;;;;;5089150;28;20607;-85
2023/03/16 11:50:54;;;;;;;4.10;3.70;;;;;;;;;;5092991;28;20578;-85
2023/03/16 11:53:28;;;;;;;5.20;4.70;;;;;;;;;;5089134;28;20716;-85
2023/03/16 11:56:00;;;;;;;4.83;4.43;;;;;;;;;;5092394;28;20618;-84
2023/03/16 11:58:34;;;;;;;5.10;4.30;;;;;;;;;;5088418;28;20236;-84
2023/03/16 12:01:07;;;;;;;5.93;4.13;;;;;;;;;;5074362;28;20216;-85
2023/03/16 12:03:57;;;;;;;5.03;3.93;;;;;;;;;;5090724;28;20588;-84
2023/03/16 12:06:29;;;;;;;6.37;4.07;;;;;;;;;;5082604;28;20232;-85
2023/03/16 12:09:14;;;;;;;4.53;4.13;;;;;;;;;;5094991;28;20233;-84
2023/03/16 12:11:43;;;;;;;6.67;3.93;;;;;;;;;;5105190;28;20695;-84
2023/03/16 12:14:15;;;;;;;4.40;3.97;;;;;;;;;;5113949;28;20251;-84
2023/03/16 12:16:44;;;;;;;4.40;4.00;;;;;;;;;;5102399;28;20262;-85
2023/03/16 12:19:15;;;;;;;4.90;4.40;;;;;;;;;;5094060;28;20238;-85
2023/03/16 12:21:45;;;;;;;4.10;3.80;;;;;;;;;;5101587;28;20197;-85
2023/03/16 12:24:15;;;;;;;4.50;4.00;;;;;;;;;;5114090;28;20207;-84
2023/03/16 12:26:44;;;;;;;5.53;3.67;;;;;;;;;;5092789;28;20273;-84
2023/03/16 12:29:15;;;;;;;4.87;4.00;;;;;;;;;;5093579;28;20247;-85
2023/03/16 12:31:47;;;;;;;5.50;4.10;;;;;;;;;;5089385;28;20783;-84
2023/03/16 12:34:23;;;;;;;5.05;4.40;;;;;;;;;;5093685;28;20316;-84
2023/03/16 12:37:05;;;;;;;5.55;3.95;;;;;;;;;;5100689;28;20200;-83
2023/03/16 12:39:40;;;;;;;5.07;3.88;;;;;;;;;;5081936;28;20229;-83
2023/03/16 12:42:14;;;;;;;4.57;3.92;;;;;;;;;;5084869;28;20703;-83
2023/03/16 12:44:47;;;;;;;5.13;4.32;;;;;;;;;;5093741;28;20286;-83
2023/03/16 12:47:21;;;;;;;7.10;4.25;;;;;;;;;;5086756;28;20229;-83
2023/03/16 12:49:49;;;;;;;4.38;3.90;;;;;;;;;;5093357;28;20225;-83
2023/03/16 12:52:17;;;;;;;4.57;4.18;;;;;;;;;;5086476;28;20243;-83
2023/03/16 12:54:52;;;;;;;4.18;3.45;;;;;;;;;;5093091;28;20185;-83
2023/03/16 12:57:21;;;;;;;4.47;3.70;;;;;;;;;;5093544;28;20269;-83
2023/03/16 12:59:56;;;;;;;4.68;3.97;;;;;;;;;;5093043;28;20228;-83
2023/03/16 13:02:25;;;;;;;3.88;3.50;;;;;;;;;;5092498;28;20240;-83
2023/03/16 13:04:57;;;;;;;5.45;3.83;;;;;;;;;;5102821;28;20205;-83
2023/03/16 13:07:29;;;;;;;4.10;3.70;;;;;;;;;;5109006;28;20228;-83
2023/03/16 13:09:59;;;;;;;4.38;3.88;;;;;;;;;;5093656;28;20221;-83
2023/03/16 13:12:27;;;;;;;4.40;3.80;;;;;;;;;;5115081;28;20699;-83
2023/03/16 13:14:55;;;;;;;4.63;3.83;;;;;;;;;;5113890;28;20698;-83
2023/03/16 13:17:27;;;;;;;3.83;3.42;;;;;;;;;;5103485;28;20236;-83
2023/03/16 13:20:05;;;;;;;3.75;3.45;;;;;;;;;;5096842;28;20235;-82
2023/03/16 13:22:42;;;;;;;5.38;3.28;;;;;;;;;;5101896;27;20208;-83
2023/03/16 13:25:16;;;;;;;3.83;3.50;;;;;;;;;;5106439;28;20333;-83
2023/03/16 13:27:44;;;;;;;4.18;3.72;;;;;;;;;;5094047;28;20296;-83
2023/03/16 13:30:19;;;;;;;3.78;3.42;;;;;;;;;;5100276;28;20229;-83
2023/03/16 13:32:46;;;;;;;3.38;3.15;;;;;;;;;;5104509;28;20250;-83
2023/03/16 13:35:15;;;;;;;3.40;3.10;;;;;;;;;;5094009;28;20193;-83
2023/03/16 13:37:43;;;;;;;3.92;3.55;;;;;;;;;;5088480;28;20255;-83
2023/03/16 13:40:23;;;;;;;2.00;1.83;;;;;;;;;;5087536;28;20220;-83
2023/03/16 13:42:52;;;;;;;2.45;1.63;;;;;;;;;;5085507;28;20277;-83
2023/03/16 13:45:21;;;;;;;2.85;1.60;;;;;;;;;;5100193;28;20643;-83
2023/03/16 13:47:48;;;;;;;2.88;2.67;;;;;;;;;;5082711;28;20229;-84
2023/03/16 13:50:16;;;;;;;4.38;2.80;;;;;;;;;;5080589;28;20692;-83
2023/03/16 13:52:58;;;;;;;3.08;1.33;;;;;;;;;;5091011;28;20229;-84
2023/03/16 13:55:30;;;;;;;1.55;1.45;;;;;;;;;;5093304;28;20246;-83
2023/03/16 13:57:57;;;;;;;1.52;1.40;;;;;;;;;;5090852;28;20853;-83
2023/03/16 14:00:25;;;;;;;1.90;1.80;;;;;;;;;;5092527;28;20216;-83
2023/03/16 14:02:53;;;;;;;1.90;1.00;;;;;;;;;;5098238;28;20676;-84
2023/03/16 14:05:23;;;;;;;1.00;1.00;;;;;;;;;;5111801;28;20278;-83
2023/03/16 14:07:51;;;;;;;2.15;1.83;;;;;;;;;;5101737;28;20282;-84
2023/03/16 14:10:19;;;;;;;1.50;1.38;;;;;;;;;;5082524;28;20275;-83
2023/03/16 14:12:54;;;;;;;1.40;1.30;;;;;;;;;;5088543;28;20282;-84
2023/03/16 14:15:24;;;;;;;1.80;1.30;;;;;;;;;;5089243;28;20212;-83
2023/03/16 14:17:51;;;;;;;1.45;1.35;;;;;;;;;;5088418;28;20244;-83
2023/03/16 14:20:20;;;;;;;1.90;1.48;;;;;;;;;;5089969;28;20220;-83
2023/03/16 14:22:47;;;;;;;1.50;1.40;;;;;;;;;;5089201;28;20258;-83
2023/03/16 14:25:20;;;;;;;1.70;1.38;;;;;;;;;;5094586;28;20223;-83
2023/03/16 14:27:48;;;;;;;2.25;1.45;;;;;;;;;;5089630;28;20225;-83
2023/03/16 14:30:18;;;;;;;1.52;1.30;;;;;;;;;;5088415;28;20857;-83
2023/03/16 14:32:55;;;;;;;1.38;1.27;;;;;;;;;;5087747;28;20258;-83
2023/03/16 14:35:23;;;;;;;2.05;1.85;;;;;;;;;;5068610;28;20185;-83
2023/03/16 14:37:50;;;;;;;1.83;1.40;;;;;;;;;;5074702;28;20236;-83
2023/03/16 14:40:23;;;;;;;1.20;1.10;;;;;;;;;;5098062;28;20632;-83
2023/03/16 14:42:50;;;;;;;1.67;1.58;;;;;;;;;;5095434;28;20255;-83
2023/03/16 14:45:19;;;;;;;2.00;1.77;;;;;;;;;;5070690;28;20227;-83